Time,TemperatureF,DewpointF,PressureIn,WindDirection,WindDirectionDegrees,WindSpeedMPH,WindSpeedGustMPH,Humidity,HourlyPrecipIn,Conditions,Clouds,dailyrainin,SoftwareType,DateUTC
2013-03-11 00:00:00,35.7,33.9,30.32,SSE,157,2.4,2.4,93,0.00,OVC,,0.01,WeatherDisplay:10.37,2013-03-11 04:00:00,
2013-03-11 00:05:00,35.0,33.4,30.31,SSE,157,2.0,2.3,94,0.00,RA,,0.00,WeatherDisplay:10.37,2013-03-11 04:05:00,
2013-03-11 00:10:00,34.6,33.3,30.31,SSW,202,1.3,1.3,95,0.00,OVC,,0.00,WeatherDisplay:10.37,2013-03-11 04:10:00,
2013-03-11 00:15:00,34.5,33.2,30.31,South,180,2.0,2.3,95,0.00,OVC,,0.00,WeatherDisplay:10.37,2013-03-11 04:15:00,
2013-03-11 00:20:00,34.3,33.0,30.31,SSE,157,0.1,1.2,95,0.00,OVC,,0.00,WeatherDisplay:10.37,2013-03-11 04:20:00,
2013-03-11 00:25:00,33.9,32.6,30.31,SSW,202,0.1,1.3,95,0.00,OVC,,0.00,WeatherDisplay:10.37,2013-03-11 04:25:00,
2013-03-11 00:30:00,33.8,32.5,30.31,SSE,157,0.3,1.2,95,0.00,OVC,,0.00,WeatherDisplay:10.37,2013-03-11 04:30:00,
2013-03-11 00:35:00,33.7,32.4,30.31,South,180,1.3,2.3,95,0.00,OVC,,0.00,WeatherDisplay:10.37,2013-03-11 04:35:00,
2013-03-11 00:40:00,33.8,32.5,30.32,NNW,337,2.6,2.7,95,0.00,OVC,,0.00,WeatherDisplay:10.37,2013-03-11 04:40:00,
2013-03-11 00:46:00,33.9,32.6,30.32,WNW,292,0.0,0.0,95,0.00,OVC,,0.00,WeatherDisplay:10.37,2013-03-11 04:46:00,
2013-03-11 00:51:00,33.9,32.6,30.31,South,180,0.9,1.2,95,0.00,OVC,,0.00,WeatherDisplay:10.37,2013-03-11 04:51:00,
2013-03-11 00:56:00,33.9,32.6,30.32,North,360,0.0,1.2,95,0.00,OVC,,0.00,WeatherDisplay:10.37,2013-03-11 04:56:00,
2013-03-11 01:01:00,34.0,32.7,30.31,SSW,202,0.1,1.2,95,0.00,OVC,,0.00,WeatherDisplay:10.37,2013-03-11 05:01:00,
2013-03-11 01:06:00,34.1,32.8,30.31,SSW,202,0.1,1.2,95,0.00,OVC,,0.00,WeatherDisplay:10.37,2013-03-11 05:06:00,
2013-03-11 01:11:00,34.1,32.8,30.31,South,180,1.0,0.0,95,0.00,OVC,,0.00,WeatherDisplay:10.37,2013-03-11 05:11:00,
2013-03-11 01:16:00,34.3,33.0,30.31,South,180,0.2,1.2,95,0.00,OVC,,0.00,WeatherDisplay:10.37,2013-03-11 05:16:00,
2013-03-11 01:21:00,34.5,33.2,30.31,NE,45,0.2,1.2,95,0.00,OVC,,0.00,WeatherDisplay:10.37,2013-03-11 05:21:00,
2013-03-11 01:26:00,34.5,33.2,30.31,WSW,247,0.2,2.7,95,0.00,OVC,,0.00,WeatherDisplay:10.37,2013-03-11 05:26:00,
2013-03-11 01:31:00,34.7,33.4,30.31,NNW,337,1.2,2.3,95,0.00,OVC,,0.00,WeatherDisplay:10.37,2013-03-11 05:31:00,
2013-03-11 01:36:00,34.9,33.6,30.31,SE,135,2.6,2.6,95,0.00,OVC,,0.00,WeatherDisplay:10.37,2013-03-11 05:36:00,
2013-03-11 01:41:00,34.9,33.6,30.31,SSW,202,3.2,5.8,95,0.00,OVC,,0.00,WeatherDisplay:10.37,2013-03-11 05:41:00,
2013-03-11 01:46:00,35.2,33.9,30.31,North,360,1.9,2.3,95,0.00,OVC,,0.00,WeatherDisplay:10.37,2013-03-11 05:46:00,
2013-03-11 01:51:00,35.2,33.9,30.31,WNW,292,2.1,4.6,95,0.00,OVC,,0.00,WeatherDisplay:10.37,2013-03-11 05:51:00,
2013-03-11 01:56:00,35.3,34.0,30.31,NNW,337,1.4,2.7,95,0.00,OVC,,0.00,WeatherDisplay:10.37,2013-03-11 05:56:00,
2013-03-11 02:01:00,35.3,34.0,30.32,South,180,2.6,2.7,95,0.00,OVC,,0.00,WeatherDisplay:10.37,2013-03-11 06:01:00,
2013-03-11 02:06:00,35.4,34.1,30.31,WSW,247,2.7,4.6,95,0.00,OVC,,0.00,WeatherDisplay:10.37,2013-03-11 06:06:00,
2013-03-11 02:11:00,35.4,34.1,30.31,NNW,337,2.3,2.3,95,0.00,OVC,,0.00,WeatherDisplay:10.37,2013-03-11 06:11:00,
2013-03-11 02:16:00,35.5,34.2,30.31,West,270,1.6,2.3,95,0.00,OVC,,0.00,WeatherDisplay:10.37,2013-03-11 06:16:00,
2013-03-11 02:21:00,35.5,34.2,30.31,North,360,0.6,2.3,95,0.00,OVC,,0.00,WeatherDisplay:10.37,2013-03-11 06:21:00,
2013-03-11 02:26:00,35.5,34.2,30.31,SE,135,1.7,2.3,95,0.00,OVC,,0.00,WeatherDisplay:10.37,2013-03-11 06:26:00,
2013-03-11 02:31:00,35.5,34.2,30.31,North,360,1.9,2.3,95,0.00,OVC,,0.00,WeatherDisplay:10.37,2013-03-11 06:31:00,
2013-03-11 02:36:00,35.5,34.2,30.31,SSW,202,2.9,4.6,95,0.00,OVC,,0.00,WeatherDisplay:10.37,2013-03-11 06:36:00,
2013-03-11 02:41:00,35.5,34.2,30.30,SSE,157,1.9,2.7,95,0.00,OVC,,0.00,WeatherDisplay:10.37,2013-03-11 06:41:00,
2013-03-11 02:46:00,35.5,34.2,30.29,South,180,1.7,2.7,95,0.00,OVC,,0.00,WeatherDisplay:10.37,2013-03-11 06:46:00,
2013-03-11 02:51:00,35.5,34.2,30.29,SW,225,2.9,2.9,95,0.00,OVC,,0.00,WeatherDisplay:10.37,2013-03-11 06:51:00,
2013-03-11 02:56:00,35.5,34.2,30.29,WSW,247,1.3,2.3,95,0.00,OVC,,0.00,WeatherDisplay:10.37,2013-03-11 06:56:00,
2013-03-11 03:01:00,35.5,34.2,30.28,SSW,202,2.7,2.7,95,0.00,OVC,,0.00,WeatherDisplay:10.37,2013-03-11 07:01:00,
2013-03-11 03:06:00,35.5,34.2,30.27,SSW,202,1.8,5.8,95,0.00,OVC,,0.00,WeatherDisplay:10.37,2013-03-11 07:06:00,
2013-03-11 03:11:00,35.4,34.1,30.27,West,270,0.2,2.3,95,0.00,OVC,,0.00,WeatherDisplay:10.37,2013-03-11 07:11:00,
2013-03-11 03:16:00,35.4,34.1,30.27,SW,225,0.6,2.7,95,0.00,OVC,,0.00,WeatherDisplay:10.37,2013-03-11 07:16:00,
2013-03-11 03:21:00,35.3,34.0,30.26,SW,225,0.9,2.3,95,0.00,OVC,,0.00,WeatherDisplay:10.37,2013-03-11 07:21:00,
2013-03-11 03:27:00,35.3,34.0,30.26,SW,225,1.5,1.5,95,0.00,OVC,,0.00,WeatherDisplay:10.37,2013-03-11 07:27:00,
2013-03-11 03:32:00,35.3,34.0,30.26,SSE,157,1.5,2.3,95,0.00,OVC,,0.00,WeatherDisplay:10.37,2013-03-11 07:32:00,
2013-03-11 03:37:00,35.3,34.0,30.25,SSW,202,2.3,2.7,95,0.00,OVC,,0.00,WeatherDisplay:10.37,2013-03-11 07:37:00,
2013-03-11 03:42:00,35.3,34.0,30.24,SSE,157,0.9,2.7,95,0.00,OVC,,0.00,WeatherDisplay:10.37,2013-03-11 07:42:00,
2013-03-11 03:47:00,35.3,34.0,30.23,SSE,157,2.4,2.4,95,0.00,OVC,,0.00,WeatherDisplay:10.37,2013-03-11 07:47:00,
2013-03-11 03:52:00,35.3,34.0,30.23,West,270,1.7,2.3,95,0.00,OVC,,0.00,WeatherDisplay:10.37,2013-03-11 07:52:00,
2013-03-11 03:57:00,35.3,34.0,30.24,WNW,292,1.1,2.3,95,0.00,OVC,,0.00,WeatherDisplay:10.37,2013-03-11 07:57:00,
2013-03-11 04:02:00,35.3,34.0,30.25,West,270,0.6,1.2,95,0.00,OVC,,0.00,WeatherDisplay:10.37,2013-03-11 08:02:00,
2013-03-11 04:07:00,35.3,34.0,30.25,West,270,1.9,2.3,95,0.00,OVC,,0.00,WeatherDisplay:10.37,2013-03-11 08:07:00,
2013-03-11 04:12:00,35.3,34.0,30.25,NW,315,2.1,2.7,95,0.00,OVC,,0.00,WeatherDisplay:10.37,2013-03-11 08:12:00,
2013-03-11 04:17:00,35.3,34.0,30.25,South,180,2.7,2.7,95,0.00,OVC,,0.00,WeatherDisplay:10.37,2013-03-11 08:17:00,
2013-03-11 04:22:00,35.3,34.0,30.25,West,270,1.4,2.3,95,0.00,OVC,,0.00,WeatherDisplay:10.37,2013-03-11 08:22:00,
2013-03-11 04:27:00,35.4,34.1,30.25,WSW,247,2.1,2.3,95,0.00,OVC,,0.00,WeatherDisplay:10.37,2013-03-11 08:27:00,
2013-03-11 04:32:00,35.3,34.0,30.24,WNW,292,1.1,2.3,95,0.00,OVC,,0.00,WeatherDisplay:10.37,2013-03-11 08:32:00,
2013-03-11 04:37:00,35.3,34.0,30.23,SE,135,2.6,2.7,95,0.00,OVC,,0.00,WeatherDisplay:10.37,2013-03-11 08:37:00,
2013-03-11 04:42:00,35.3,34.0,30.23,WNW,292,2.0,2.3,95,0.00,OVC,,0.00,WeatherDisplay:10.37,2013-03-11 08:42:00,
2013-03-11 04:47:00,35.3,34.0,30.23,West,270,2.7,2.7,95,0.00,OVC,,0.00,WeatherDisplay:10.37,2013-03-11 08:47:00,
2013-03-11 04:52:00,35.4,34.1,30.23,WSW,247,2.2,2.3,95,0.00,OVC,,0.00,WeatherDisplay:10.37,2013-03-11 08:52:00,
2013-03-11 04:57:00,35.4,34.1,30.23,SSE,157,1.5,2.3,95,0.00,OVC,,0.00,WeatherDisplay:10.37,2013-03-11 08:57:00,
2013-03-11 05:02:00,35.4,34.1,30.22,WNW,292,0.0,0.0,95,0.00,OVC,,0.00,WeatherDisplay:10.37,2013-03-11 09:02:00,
2013-03-11 05:07:00,35.3,34.0,30.22,NW,315,0.1,1.3,95,0.00,OVC,,0.00,WeatherDisplay:10.37,2013-03-11 09:07:00,
2013-03-11 05:12:00,35.2,33.9,30.21,SE,135,0.1,2.7,95,0.00,OVC,,0.00,WeatherDisplay:10.37,2013-03-11 09:12:00,
2013-03-11 05:17:00,35.2,33.9,30.21,WSW,247,1.0,2.3,95,0.00,OVC,,0.00,WeatherDisplay:10.37,2013-03-11 09:17:00,
2013-03-11 05:22:00,35.2,33.9,30.21,WSW,247,0.1,2.3,95,0.00,OVC,,0.00,WeatherDisplay:10.37,2013-03-11 09:22:00,
2013-03-11 05:27:00,35.3,34.0,30.21,WSW,247,0.6,2.3,95,0.00,OVC,,0.00,WeatherDisplay:10.37,2013-03-11 09:27:00,
2013-03-11 05:32:00,35.3,34.0,30.20,SSW,202,1.7,2.7,95,0.00,OVC,,0.00,WeatherDisplay:10.37,2013-03-11 09:32:00,
2013-03-11 05:37:00,35.3,34.0,30.19,West,270,1.9,2.3,95,0.00,OVC,,0.00,WeatherDisplay:10.37,2013-03-11 09:37:00,
2013-03-11 05:42:00,35.3,34.0,30.19,WSW,247,1.5,2.3,95,0.00,OVC,,0.00,WeatherDisplay:10.37,2013-03-11 09:42:00,
2013-03-11 05:47:00,35.3,34.0,30.19,SSW,202,0.0,1.2,95,0.00,OVC,,0.00,WeatherDisplay:10.37,2013-03-11 09:47:00,
2013-03-11 05:52:00,35.2,33.9,30.18,SSE,157,3.0,8.1,95,0.00,OVC,,0.00,WeatherDisplay:10.37,2013-03-11 09:52:00,
2013-03-11 05:57:00,35.3,34.0,30.18,NNW,337,1.7,2.7,95,0.00,OVC,,0.00,WeatherDisplay:10.37,2013-03-11 09:57:00,
2013-03-11 06:02:00,35.3,34.0,30.17,SSE,157,0.5,2.3,95,0.00,OVC,,0.00,WeatherDisplay:10.37,2013-03-11 10:02:00,
2013-03-11 06:07:00,35.2,33.9,30.17,WSW,247,2.6,4.1,95,0.00,OVC,,0.00,WeatherDisplay:10.37,2013-03-11 10:07:00,
2013-03-11 06:12:00,35.2,33.9,30.17,West,270,0.1,2.7,95,0.00,OVC,,0.00,WeatherDisplay:10.37,2013-03-11 10:12:00,
2013-03-11 06:17:00,35.1,33.8,30.17,WSW,247,1.9,2.7,95,0.00,OVC,,0.00,WeatherDisplay:10.37,2013-03-11 10:17:00,
2013-03-11 06:22:00,35.1,33.8,30.17,NNW,337,0.8,2.3,95,0.00,OVC,,0.00,WeatherDisplay:10.37,2013-03-11 10:22:00,
2013-03-11 06:27:00,35.1,33.8,30.17,WSW,247,1.4,2.3,95,0.00,OVC,,0.00,WeatherDisplay:10.37,2013-03-11 10:27:00,
2013-03-11 06:32:00,35.1,33.8,30.17,SSE,157,0.9,2.7,95,0.00,OVC,,0.00,WeatherDisplay:10.37,2013-03-11 10:32:00,
2013-03-11 06:37:00,35.3,34.0,30.18,SSW,202,1.7,2.7,95,0.00,OVC,,0.00,WeatherDisplay:10.37,2013-03-11 10:37:00,
2013-03-11 06:42:00,35.3,34.0,30.17,NW,315,1.1,2.7,95,0.00,OVC,,0.00,WeatherDisplay:10.37,2013-03-11 10:42:00,
2013-03-11 06:47:00,35.3,34.0,30.17,SW,225,1.4,2.3,95,0.00,OVC,,0.00,WeatherDisplay:10.37,2013-03-11 10:47:00,
2013-03-11 06:52:00,35.5,33.9,30.17,WSW,247,0.0,1.2,94,0.00,OVC,,0.00,WeatherDisplay:10.37,2013-03-11 10:52:00,
2013-03-11 06:57:00,35.5,34.2,30.16,SSW,202,2.1,4.6,95,0.00,OVC,,0.00,WeatherDisplay:10.37,2013-03-11 10:57:00,
2013-03-11 07:02:00,35.6,34.3,30.16,South,180,1.9,2.3,95,0.00,OVC,,0.00,WeatherDisplay:10.37,2013-03-11 11:02:00,
2013-03-11 07:07:00,35.7,34.4,30.15,SE,135,0.2,1.3,95,0.00,OVC,,0.00,WeatherDisplay:10.37,2013-03-11 11:07:00,
2013-03-11 07:12:00,35.7,34.4,30.15,West,270,2.3,2.3,95,0.00,OVC,,0.00,WeatherDisplay:10.37,2013-03-11 11:12:00,
2013-03-11 07:17:00,35.8,34.5,30.15,WSW,247,1.3,5.8,95,0.00,OVC,,0.00,WeatherDisplay:10.37,2013-03-11 11:17:00,
2013-03-11 07:22:00,35.9,34.6,30.14,SE,135,2.2,4.6,95,0.00,OVC,,0.00,WeatherDisplay:10.37,2013-03-11 11:22:00,
2013-03-11 07:27:00,35.9,34.6,30.14,WNW,292,2.5,2.7,95,0.00,OVC,,0.00,WeatherDisplay:10.37,2013-03-11 11:27:00,
2013-03-11 07:32:00,35.9,34.6,30.13,WSW,247,0.2,2.7,95,0.00,OVC,,0.00,WeatherDisplay:10.37,2013-03-11 11:32:00,
2013-03-11 07:37:00,36.1,34.8,30.13,South,180,3.2,5.8,95,0.00,OVC,,0.00,WeatherDisplay:10.37,2013-03-11 11:37:00,
2013-03-11 07:42:00,36.2,34.6,30.12,West,270,0.8,2.7,94,0.00,OVC,,0.00,WeatherDisplay:10.37,2013-03-11 11:42:00,
2013-03-11 07:47:00,36.3,34.7,30.12,West,270,0.8,1.3,94,0.00,OVC,,0.00,WeatherDisplay:10.37,2013-03-11 11:47:00,
2013-03-11 07:52:00,36.4,35.1,30.11,SE,135,2.2,2.3,95,0.00,OVC,,0.00,WeatherDisplay:10.37,2013-03-11 11:52:00,
2013-03-11 07:57:00,36.5,34.9,30.11,WSW,247,1.1,2.3,94,0.00,OVC,,0.00,WeatherDisplay:10.37,2013-03-11 11:57:00,
2013-03-11 08:02:00,36.6,35.0,30.10,WSW,247,1.5,2.3,94,0.00,OVC,,0.00,WeatherDisplay:10.37,2013-03-11 12:02:00,
2013-03-11 08:07:00,36.7,35.1,30.09,West,270,2.1,2.3,94,0.00,OVC,,0.00,WeatherDisplay:10.37,2013-03-11 12:07:00,
2013-03-11 08:12:00,36.8,35.2,30.09,SSE,157,0.3,1.3,94,0.00,OVC,,0.00,WeatherDisplay:10.37,2013-03-11 12:12:00,
2013-03-11 08:17:00,36.9,35.3,30.09,South,180,2.2,5.8,94,0.00,OVC,,0.00,WeatherDisplay:10.37,2013-03-11 12:17:00,
2013-03-11 08:22:00,37.1,35.5,30.09,South,180,0.6,2.3,94,0.00,OVC,,0.00,WeatherDisplay:10.37,2013-03-11 12:22:00,
2013-03-11 08:27:00,37.2,35.6,30.07,SE,135,2.0,2.3,94,0.00,OVC,,0.00,WeatherDisplay:10.37,2013-03-11 12:27:00,
2013-03-11 08:32:00,37.4,35.8,30.07,SW,225,2.7,4.6,94,0.00,OVC,,0.00,WeatherDisplay:10.37,2013-03-11 12:32:00,
2013-03-11 08:37:00,37.6,35.8,30.06,South,180,2.2,2.7,93,0.00,OVC,,0.00,WeatherDisplay:10.37,2013-03-11 12:37:00,
2013-03-11 08:42:00,37.9,36.1,30.05,SSW,202,0.3,1.2,93,0.00,OVC,,0.00,WeatherDisplay:10.37,2013-03-11 12:42:00,
2013-03-11 08:47:00,38.3,36.5,30.05,SSW,202,2.0,2.3,93,0.00,OVC,,0.00,WeatherDisplay:10.37,2013-03-11 12:47:00,
2013-03-11 08:52:00,38.5,36.4,30.04,SE,135,3.0,3.0,92,0.00,OVC,,0.00,WeatherDisplay:10.37,2013-03-11 12:52:00,
2013-03-11 08:57:00,38.7,36.6,30.03,South,180,3.5,5.8,92,0.00,OVC,,0.00,WeatherDisplay:10.37,2013-03-11 12:57:00,
2013-03-11 09:02:00,39.0,36.6,30.02,WSW,247,2.2,4.6,91,0.00,OVC,,0.00,WeatherDisplay:10.37,2013-03-11 13:02:00,
2013-03-11 09:07:00,39.3,36.9,30.02,SSW,202,1.3,2.3,91,0.00,OVC,,0.00,WeatherDisplay:10.37,2013-03-11 13:07:00,
2013-03-11 09:12:00,39.6,36.9,30.01,West,270,1.6,2.7,90,0.00,OVC,,0.00,WeatherDisplay:10.37,2013-03-11 13:12:00,
2013-03-11 09:17:00,39.9,36.9,30.00,NE,45,1.4,2.3,89,0.00,OVC,,0.00,WeatherDisplay:10.37,2013-03-11 13:17:00,
2013-03-11 09:22:00,40.4,37.1,29.99,SSW,202,1.3,1.3,88,0.00,OVC,,0.00,WeatherDisplay:10.37,2013-03-11 13:22:00,
2013-03-11 09:27:00,40.8,37.2,29.98,SW,225,4.7,8.1,87,0.00,OVC,,0.00,WeatherDisplay:10.37,2013-03-11 13:27:00,
2013-03-11 09:32:00,41.0,37.1,29.96,NW,315,4.1,5.8,86,0.00,OVC,,0.00,WeatherDisplay:10.37,2013-03-11 13:32:00,
2013-03-11 09:37:00,41.2,37.3,29.96,NNW,337,0.9,2.3,86,0.00,OVC,,0.00,WeatherDisplay:10.37,2013-03-11 13:37:00,
2013-03-11 09:42:00,41.6,37.4,29.95,South,180,1.7,2.7,85,0.00,OVC,,0.00,WeatherDisplay:10.37,2013-03-11 13:42:00,
2013-03-11 09:47:00,41.9,37.4,29.94,SE,135,1.0,2.7,84,0.00,OVC,,0.00,WeatherDisplay:10.37,2013-03-11 13:47:00,
2013-03-11 09:52:00,42.2,37.4,29.93,WSW,247,2.8,6.9,83,0.00,OVC,,0.00,WeatherDisplay:10.37,2013-03-11 13:52:00,
2013-03-11 09:57:00,42.8,37.4,29.92,WSW,247,3.6,8.1,81,0.00,OVC,,0.00,WeatherDisplay:10.37,2013-03-11 13:57:00,
2013-03-11 10:02:00,43.2,37.4,29.91,SW,225,2.6,4.6,80,0.00,OVC,,0.00,WeatherDisplay:10.37,2013-03-11 14:02:00,
2013-03-11 10:07:00,43.2,37.4,29.90,South,180,5.0,8.1,80,0.00,OVC,,0.00,WeatherDisplay:10.37,2013-03-11 14:07:00,
2013-03-11 10:12:00,43.2,37.1,29.89,SSW,202,3.2,4.6,79,0.00,OVC,,0.00,WeatherDisplay:10.37,2013-03-11 14:12:00,
2013-03-11 10:17:00,43.7,37.3,29.88,West,270,3.2,3.2,78,0.00,OVC,,0.00,WeatherDisplay:10.37,2013-03-11 14:17:00,
2013-03-11 10:22:00,43.9,37.5,29.87,SSE,157,5.3,8.1,78,0.00,BKN,,0.00,WeatherDisplay:10.37,2013-03-11 14:22:00,
2013-03-11 10:27:00,44.3,37.5,29.86,WSW,247,2.8,8.1,77,0.00,BKN,,0.00,WeatherDisplay:10.37,2013-03-11 14:27:00,
2013-03-11 10:32:00,44.7,37.9,29.85,SSW,202,1.3,4.6,77,0.00,BKN,,0.00,WeatherDisplay:10.37,2013-03-11 14:32:00,
2013-03-11 10:37:00,44.9,37.8,29.84,SSW,202,4.1,8.1,76,0.00,BKN,,0.00,WeatherDisplay:10.37,2013-03-11 14:37:00,
2013-03-11 10:42:00,45.3,37.5,29.82,SE,135,2.8,4.6,74,0.00,BKN,,0.00,WeatherDisplay:10.37,2013-03-11 14:42:00,
2013-03-11 10:47:00,45.8,37.6,29.81,WNW,292,3.5,6.9,73,0.00,BKN,,0.00,WeatherDisplay:10.37,2013-03-11 14:47:00,
2013-03-11 10:52:00,46.4,37.9,29.80,WNW,292,2.3,5.4,72,0.00,SCT,,0.00,WeatherDisplay:10.37,2013-03-11 14:52:00,
2013-03-11 10:57:00,46.5,38.0,29.78,SSE,157,3.4,6.9,72,0.00,SCT,,0.00,WeatherDisplay:10.37,2013-03-11 14:57:00,
2013-03-11 11:02:00,46.3,37.4,29.78,SE,135,1.9,5.8,71,0.00,FEW,,0.00,WeatherDisplay:10.37,2013-03-11 15:02:00,
2013-03-11 11:07:00,47.2,37.5,29.76,South,180,3.0,3.0,69,0.00,FEW,,0.00,WeatherDisplay:10.37,2013-03-11 15:07:00,
2013-03-11 11:12:00,47.7,37.7,29.75,South,180,2.3,4.6,68,0.00,FEW,,0.00,WeatherDisplay:10.37,2013-03-11 15:12:00,
2013-03-11 11:17:00,48.2,38.1,29.73,South,180,3.5,3.5,68,0.00,FEW,,0.00,WeatherDisplay:10.37,2013-03-11 15:17:00,
2013-03-11 11:22:00,48.6,38.1,29.71,WNW,292,2.0,2.3,67,0.00,FEW,,0.00,WeatherDisplay:10.37,2013-03-11 15:22:00,
2013-03-11 11:27:00,48.2,38.1,29.69,North,360,2.8,9.2,68,0.00,FEW,,0.00,WeatherDisplay:10.37,2013-03-11 15:27:00,
2013-03-11 11:32:00,47.6,37.9,29.69,West,270,2.9,4.6,69,0.00,FEW,,0.00,WeatherDisplay:10.37,2013-03-11 15:32:00,
2013-03-11 11:37:00,47.7,37.7,29.68,NNW,337,3.3,8.1,68,0.00,FEW,,0.00,WeatherDisplay:10.37,2013-03-11 15:37:00,
2013-03-11 11:42:00,48.1,38.0,29.68,SE,135,1.9,2.3,68,0.00,FEW,,0.00,WeatherDisplay:10.37,2013-03-11 15:42:00,
2013-03-11 11:47:00,48.9,38.4,29.66,South,180,3.6,4.6,67,0.00,FEW,,0.00,WeatherDisplay:10.37,2013-03-11 15:47:00,
2013-03-11 11:52:00,49.5,38.6,29.64,SW,225,2.5,5.8,66,0.00,FEW,,0.00,WeatherDisplay:10.37,2013-03-11 15:52:00,
2013-03-11 11:57:00,49.9,38.2,29.62,South,180,3.1,4.6,64,0.00,FEW,,0.00,WeatherDisplay:10.37,2013-03-11 15:57:00,
2013-03-11 12:02:00,50.3,38.6,29.60,WSW,247,1.2,2.3,64,0.00,FEW,,0.00,WeatherDisplay:10.37,2013-03-11 16:02:00,
2013-03-11 12:07:00,50.3,39.0,29.58,West,270,2.5,2.5,65,0.00,FEW,,0.00,WeatherDisplay:10.37,2013-03-11 16:07:00,
2013-03-11 12:12:00,50.2,38.9,29.57,SSW,202,1.3,2.7,65,0.00,FEW,,0.00,WeatherDisplay:10.37,2013-03-11 16:12:00,
2013-03-11 12:17:00,50.4,38.7,29.56,SSE,157,2.9,5.8,64,0.00,FEW,,0.00,WeatherDisplay:10.37,2013-03-11 16:17:00,
2013-03-11 12:22:00,50.1,38.8,29.54,South,180,5.6,6.9,65,0.00,FEW,,0.00,WeatherDisplay:10.37,2013-03-11 16:22:00,
2013-03-11 12:27:00,50.2,38.9,29.53,SSW,202,2.2,5.8,65,0.00,FEW,,0.00,WeatherDisplay:10.37,2013-03-11 16:27:00,
2013-03-11 12:32:00,49.9,39.0,29.52,SW,225,1.9,6.9,66,0.00,FEW,,0.00,WeatherDisplay:10.37,2013-03-11 16:32:00,
2013-03-11 12:37:00,50.5,39.2,29.52,SSE,157,0.3,2.3,65,0.00,FEW,,0.00,WeatherDisplay:10.37,2013-03-11 16:37:00,
2013-03-11 12:42:00,51.1,38.9,29.50,SE,135,2.8,5.8,63,0.00,FEW,,0.00,WeatherDisplay:10.37,2013-03-11 16:42:00,
2013-03-11 12:47:00,51.2,39.0,29.49,SSW,202,2.4,4.6,63,0.00,FEW,,0.00,WeatherDisplay:10.37,2013-03-11 16:47:00,
2013-03-11 12:52:00,51.9,39.3,29.48,SW,225,2.1,4.6,62,0.00,FEW,,0.00,WeatherDisplay:10.37,2013-03-11 16:52:00,
2013-03-11 12:57:00,51.4,38.8,29.46,SSE,157,3.2,4.1,62,0.00,FEW,,0.00,WeatherDisplay:10.37,2013-03-11 16:57:00,
2013-03-11 13:02:00,51.2,39.0,29.45,SE,135,3.6,4.6,63,0.00,CLR,,0.00,WeatherDisplay:10.37,2013-03-11 17:02:00,
2013-03-11 13:07:00,51.3,39.1,29.46,NW,315,2.4,2.4,63,0.00,CLR,,0.00,WeatherDisplay:10.37,2013-03-11 17:07:00,
2013-03-11 13:12:00,51.3,38.7,29.46,SW,225,2.8,5.8,62,0.00,CLR,,0.00,WeatherDisplay:10.37,2013-03-11 17:12:00,
2013-03-11 13:17:00,51.7,38.7,29.47,NE,45,0.2,2.3,61,0.00,CLR,,0.00,WeatherDisplay:10.37,2013-03-11 17:17:00,
2013-03-11 13:22:00,51.9,39.3,29.47,NW,315,1.6,2.7,62,0.00,CLR,,0.00,WeatherDisplay:10.37,2013-03-11 17:22:00,
2013-03-11 13:27:00,52.3,39.2,29.46,SSE,157,1.4,2.3,61,0.00,CLR,,0.00,WeatherDisplay:10.37,2013-03-11 17:27:00,
2013-03-11 13:32:00,52.1,38.6,29.46,SSE,157,2.7,2.7,60,0.00,CLR,,0.00,WeatherDisplay:10.37,2013-03-11 17:32:00,
2013-03-11 13:37:00,52.0,38.5,29.46,SSE,157,3.5,4.6,60,0.00,CLR,,0.00,WeatherDisplay:10.37,2013-03-11 17:37:00,
2013-03-11 13:42:00,51.9,38.9,29.46,NW,315,3.0,3.0,61,0.00,CLR,,0.00,WeatherDisplay:10.37,2013-03-11 17:42:00,
2013-03-11 13:47:00,51.9,38.9,29.46,South,180,1.5,2.3,61,0.00,CLR,,0.00,WeatherDisplay:10.37,2013-03-11 17:47:00,
2013-03-11 13:52:00,51.9,39.3,29.46,SSW,202,2.9,2.9,62,0.00,CLR,,0.00,WeatherDisplay:10.37,2013-03-11 17:52:00,
2013-03-11 13:57:00,51.7,39.9,29.46,SSE,157,1.7,5.8,64,0.00,CLR,,0.00,WeatherDisplay:10.37,2013-03-11 17:57:00,
2013-03-11 14:02:00,51.7,40.3,29.46,SSW,202,2.4,2.4,65,0.00,CLR,,0.00,WeatherDisplay:10.37,2013-03-11 18:02:00,
2013-03-11 14:07:00,51.3,40.3,29.46,NW,315,3.1,6.9,66,0.00,CLR,,0.00,WeatherDisplay:10.37,2013-03-11 18:07:00,
2013-03-11 14:12:00,50.4,39.9,29.47,SE,135,2.4,8.1,67,0.00,CLR,,0.00,WeatherDisplay:10.37,2013-03-11 18:12:00,
2013-03-11 14:17:00,50.7,40.1,29.48,South,180,0.9,2.3,67,0.00,CLR,,0.00,WeatherDisplay:10.37,2013-03-11 18:17:00,
2013-03-11 14:22:00,50.8,40.2,29.48,SSW,202,2.6,2.7,67,0.00,CLR,,0.00,WeatherDisplay:10.37,2013-03-11 18:22:00,
2013-03-11 14:27:00,51.1,40.1,29.48,SE,135,1.8,5.8,66,0.00,CLR,,0.00,WeatherDisplay:10.37,2013-03-11 18:27:00,
2013-03-11 14:32:00,51.3,40.3,29.47,SSE,157,2.0,5.8,66,0.00,CLR,,0.00,WeatherDisplay:10.37,2013-03-11 18:32:00,
2013-03-11 14:37:00,51.6,40.6,29.47,SSW,202,2.3,2.7,66,0.00,CLR,,0.00,WeatherDisplay:10.37,2013-03-11 18:37:00,
2013-03-11 14:42:00,52.1,40.7,29.47,SE,135,2.7,4.6,65,0.00,CLR,,0.00,WeatherDisplay:10.37,2013-03-11 18:42:00,
2013-03-11 14:47:00,52.4,40.6,29.46,SE,135,3.6,5.8,64,0.00,CLR,,0.00,WeatherDisplay:10.37,2013-03-11 18:47:00,
2013-03-11 14:52:00,52.5,40.3,29.44,SW,225,3.4,5.8,63,0.00,CLR,,0.00,WeatherDisplay:10.37,2013-03-11 18:52:00,
2013-03-11 14:57:00,53.2,40.5,29.45,SSE,157,2.9,4.6,62,0.00,CLR,,0.00,WeatherDisplay:10.37,2013-03-11 18:57:00,
2013-03-11 15:02:00,53.3,40.6,29.45,SSE,157,4.1,5.8,62,0.00,CLR,,0.00,WeatherDisplay:10.37,2013-03-11 19:02:00,
2013-03-11 15:07:00,52.8,40.5,29.45,SSE,157,3.9,8.1,63,0.00,CLR,,0.00,WeatherDisplay:10.37,2013-03-11 19:07:00,
2013-03-11 15:12:00,52.6,41.2,29.48,SSE,157,1.3,2.3,65,0.00,CLR,,0.00,WeatherDisplay:10.37,2013-03-11 19:12:00,
2013-03-11 15:17:00,51.7,40.7,29.50,SE,135,3.8,5.4,66,0.00,CLR,,0.00,WeatherDisplay:10.37,2013-03-11 19:17:00,
2013-03-11 15:22:00,51.9,40.9,29.53,SW,225,2.7,5.8,66,0.00,CLR,,0.00,WeatherDisplay:10.37,2013-03-11 19:22:00,
2013-03-11 15:27:00,52.1,41.1,29.55,SSE,157,3.0,5.8,66,0.00,CLR,,0.00,WeatherDisplay:10.37,2013-03-11 19:27:00,
2013-03-11 15:32:00,52.6,41.6,29.55,South,180,4.5,5.4,66,0.00,CLR,,0.00,WeatherDisplay:10.37,2013-03-11 19:32:00,
2013-03-11 15:37:00,52.6,41.6,29.56,SSE,157,3.8,5.8,66,0.00,CLR,,0.00,WeatherDisplay:10.37,2013-03-11 19:37:00,
2013-03-11 15:42:00,52.8,41.4,29.56,SSE,157,2.7,2.7,65,0.00,CLR,,0.00,WeatherDisplay:10.37,2013-03-11 19:42:00,
2013-03-11 15:47:00,52.9,41.4,29.57,SSW,202,3.8,5.8,65,0.00,CLR,,0.00,WeatherDisplay:10.37,2013-03-11 19:47:00,
2013-03-11 15:52:00,53.0,41.5,29.58,SSW,202,2.6,5.8,65,0.00,CLR,,0.00,WeatherDisplay:10.37,2013-03-11 19:52:00,
2013-03-11 15:57:00,52.7,41.7,29.60,NW,315,3.7,5.8,66,0.00,CLR,,0.00,WeatherDisplay:10.37,2013-03-11 19:57:00,
2013-03-11 16:02:00,52.8,41.4,29.60,SSW,202,3.1,5.8,65,0.00,CLR,,0.00,WeatherDisplay:10.37,2013-03-11 20:02:00,
2013-03-11 16:07:00,52.4,41.4,29.62,SSE,157,3.9,4.6,66,0.00,CLR,,0.00,WeatherDisplay:10.37,2013-03-11 20:07:00,
2013-03-11 16:12:00,52.4,40.6,29.64,SE,135,2.2,2.3,64,0.00,CLR,,0.00,WeatherDisplay:10.37,2013-03-11 20:12:00,
2013-03-11 16:17:00,52.1,41.1,29.66,South,180,3.6,5.8,66,0.00,CLR,,0.00,WeatherDisplay:10.37,2013-03-11 20:17:00,
2013-03-11 16:22:00,51.6,40.6,29.68,South,180,2.4,2.7,66,0.00,CLR,,0.00,WeatherDisplay:10.37,2013-03-11 20:22:00,
2013-03-11 16:27:00,51.1,40.9,29.71,WSW,247,0.9,4.6,68,0.00,CLR,,0.00,WeatherDisplay:10.37,2013-03-11 20:27:00,
2013-03-11 16:32:00,50.6,40.8,29.73,SSE,157,4.0,5.8,69,0.00,CLR,,0.00,WeatherDisplay:10.37,2013-03-11 20:32:00,
2013-03-11 16:37:00,50.3,40.9,29.75,SSE,157,3.1,4.6,70,0.00,CLR,,0.00,WeatherDisplay:10.37,2013-03-11 20:37:00,
2013-03-11 16:42:00,49.9,41.2,29.76,SW,225,3.0,5.8,72,0.00,CLR,,0.00,WeatherDisplay:10.37,2013-03-11 20:42:00,
2013-03-11 16:47:00,49.5,41.2,29.78,SE,135,2.0,2.7,73,0.00,CLR,,0.00,WeatherDisplay:10.37,2013-03-11 20:47:00,
2013-03-11 16:52:00,49.2,40.9,29.79,SSE,157,3.3,9.2,73,0.00,CLR,,0.00,WeatherDisplay:10.37,2013-03-11 20:52:00,
2013-03-11 16:57:00,48.9,41.0,29.79,SSE,157,1.7,4.6,74,0.00,CLR,,0.00,WeatherDisplay:10.37,2013-03-11 20:57:00,
2013-03-11 17:02:00,48.8,40.9,29.80,SE,135,3.1,3.1,74,0.00,CLR,,0.00,WeatherDisplay:10.37,2013-03-11 21:02:00,
2013-03-11 17:07:00,48.7,40.8,29.81,SSW,202,3.9,5.8,74,0.00,CLR,,0.00,WeatherDisplay:10.37,2013-03-11 21:07:00,
2013-03-11 17:13:00,48.5,40.9,29.81,SE,135,2.8,5.8,75,0.00,CLR,,0.00,WeatherDisplay:10.37,2013-03-11 21:13:00,
2013-03-11 17:18:00,48.2,41.0,29.82,SSE,157,2.7,4.6,76,0.00,CLR,,0.00,WeatherDisplay:10.37,2013-03-11 21:18:00,
2013-03-11 17:23:00,47.9,41.0,29.82,South,180,1.8,2.3,77,0.00,CLR,,0.00,WeatherDisplay:10.37,2013-03-11 21:23:00,
2013-03-11 17:28:00,47.5,41.0,29.83,SSW,202,4.0,4.0,78,0.00,CLR,,0.00,WeatherDisplay:10.37,2013-03-11 21:28:00,
2013-03-11 17:33:00,47.3,40.8,29.83,SW,225,2.6,5.8,78,0.00,CLR,,0.00,WeatherDisplay:10.37,2013-03-11 21:33:00,
2013-03-11 17:38:00,47.1,41.2,29.84,SSE,157,3.4,3.4,80,0.00,CLR,,0.00,WeatherDisplay:10.37,2013-03-11 21:38:00,
2013-03-11 17:43:00,46.9,41.1,29.84,SSW,202,0.8,2.3,80,0.00,CLR,,0.00,WeatherDisplay:10.37,2013-03-11 21:43:00,
2013-03-11 17:48:00,46.6,41.4,29.85,SSE,157,2.6,2.6,82,0.00,CLR,,0.00,WeatherDisplay:10.37,2013-03-11 21:48:00,
2013-03-11 17:53:00,46.5,41.3,29.85,SSW,202,1.9,4.1,82,0.00,CLR,,0.00,WeatherDisplay:10.37,2013-03-11 21:53:00,
2013-03-11 17:58:00,46.3,41.4,29.86,South,180,3.6,4.6,83,0.00,CLR,,0.00,WeatherDisplay:10.37,2013-03-11 21:58:00,
2013-03-11 18:03:00,46.2,41.3,29.86,South,180,3.1,5.8,83,0.00,CLR,,0.00,WeatherDisplay:10.37,2013-03-11 22:03:00,
2013-03-11 18:10:00,46.1,41.5,29.87,SSE,157,3.1,3.1,84,0.00,CLR,,0.00,WeatherDisplay:10.37,2013-03-11 22:10:00,
2013-03-11 18:15:00,45.7,41.1,29.87,SW,225,1.4,2.7,84,0.00,CLR,,0.00,WeatherDisplay:10.37,2013-03-11 22:15:00,
2013-03-11 18:20:00,45.8,41.2,29.88,SSW,202,2.4,2.4,84,0.00,CLR,,0.00,WeatherDisplay:10.37,2013-03-11 22:20:00,
2013-03-11 18:25:00,45.8,41.5,29.88,SE,135,4.1,5.8,85,0.00,CLR,,0.00,WeatherDisplay:10.37,2013-03-11 22:25:00,
2013-03-11 18:30:00,45.4,40.8,29.88,NE,45,2.0,8.1,84,0.00,CLR,,0.00,WeatherDisplay:10.37,2013-03-11 22:30:00,
2013-03-11 18:35:00,45.3,41.4,29.88,SSE,157,2.3,4.6,86,0.00,CLR,,0.00,WeatherDisplay:10.37,2013-03-11 22:35:00,
2013-03-11 18:40:00,45.1,41.5,29.88,SW,225,2.4,2.4,87,0.00,CLR,,0.00,WeatherDisplay:10.37,2013-03-11 22:40:00,
2013-03-11 18:45:00,44.9,41.0,29.88,SSE,157,2.0,2.3,86,0.00,CLR,,0.00,WeatherDisplay:10.37,2013-03-11 22:45:00,
2013-03-11 18:50:00,44.5,41.2,29.89,SSW,202,2.4,5.8,88,0.00,CLR,,0.00,WeatherDisplay:10.37,2013-03-11 22:50:00,
2013-03-11 18:56:00,44.4,41.4,29.90,SW,225,7.8,7.8,89,0.00,CLR,,0.00,WeatherDisplay:10.37,2013-03-11 22:56:00,
2013-03-11 19:01:00,44.3,41.3,29.89,WSW,247,4.2,4.6,89,0.00,CLR,,0.00,WeatherDisplay:10.37,2013-03-11 23:01:00,
2013-03-11 19:06:00,44.2,41.5,29.90,South,180,2.3,2.3,90,0.00,CLR,,0.00,WeatherDisplay:10.37,2013-03-11 23:06:00,
2013-03-11 19:11:00,43.9,41.2,29.89,SSE,157,2.1,4.6,90,0.00,CLR,,0.00,WeatherDisplay:10.37,2013-03-11 23:11:00,
2013-03-11 19:16:00,43.6,41.1,29.89,SSW,202,1.8,2.7,91,0.00,CLR,,0.00,WeatherDisplay:10.37,2013-03-11 23:16:00,
2013-03-11 19:21:00,43.5,41.3,29.89,SW,225,1.9,2.3,92,0.00,CLR,,0.00,WeatherDisplay:10.37,2013-03-11 23:21:00,
2013-03-11 19:26:00,43.4,41.2,29.89,South,180,0.7,2.3,92,0.00,CLR,,0.00,WeatherDisplay:10.37,2013-03-11 23:26:00,
2013-03-11 19:31:00,43.4,41.5,29.90,South,180,2.6,5.8,93,0.00,CLR,,0.00,WeatherDisplay:10.37,2013-03-11 23:31:00,
2013-03-11 19:36:00,43.2,41.6,29.90,SSE,157,3.7,4.6,94,0.00,CLR,,0.00,WeatherDisplay:10.37,2013-03-11 23:36:00,
2013-03-11 19:41:00,43.0,41.1,29.90,SW,225,1.7,2.3,93,0.00,CLR,,0.00,WeatherDisplay:10.37,2013-03-11 23:41:00,
2013-03-11 19:46:00,42.9,41.3,29.90,SE,135,0.3,2.3,94,0.00,CLR,,0.00,WeatherDisplay:10.37,2013-03-11 23:46:00,
2013-03-11 19:51:00,42.6,41.3,29.90,SE,135,1.1,2.3,95,0.00,CLR,,0.00,WeatherDisplay:10.37,2013-03-11 23:51:00,
2013-03-11 19:56:00,42.6,41.3,29.90,SSW,202,2.2,2.3,95,0.00,CLR,,0.00,WeatherDisplay:10.37,2013-03-11 23:56:00,
2013-03-11 20:01:00,42.6,41.3,29.89,SW,225,1.7,2.3,95,0.00,CLR,,0.00,WeatherDisplay:10.37,2013-03-12 00:01:00,
2013-03-11 20:06:00,42.6,41.5,29.89,South,180,2.7,2.7,96,0.00,CLR,,0.00,WeatherDisplay:10.37,2013-03-12 00:06:00,
2013-03-11 20:11:00,42.5,41.4,29.88,SE,135,0.1,2.3,96,0.00,CLR,,0.00,WeatherDisplay:10.37,2013-03-12 00:11:00,
2013-03-11 20:16:00,42.2,41.1,29.88,SE,135,1.4,2.7,96,0.00,CLR,,0.00,WeatherDisplay:10.37,2013-03-12 00:16:00,
2013-03-11 20:21:00,42.1,41.0,29.88,SSE,157,0.4,2.3,96,0.00,CLR,,0.00,WeatherDisplay:10.37,2013-03-12 00:21:00,
2013-03-11 20:27:00,41.9,40.8,29.88,SW,225,2.1,2.7,96,0.00,CLR,,0.00,WeatherDisplay:10.37,2013-03-12 00:27:00,
2013-03-11 20:32:00,41.8,40.7,29.88,SE,135,1.2,2.7,96,0.00,CLR,,0.00,WeatherDisplay:10.37,2013-03-12 00:32:00,
2013-03-11 20:37:00,41.6,40.5,29.88,SW,225,0.0,0.0,96,0.00,CLR,,0.00,WeatherDisplay:10.37,2013-03-12 00:37:00,
2013-03-11 20:42:00,41.4,40.3,29.88,SW,225,0.1,1.2,96,0.00,CLR,,0.00,WeatherDisplay:10.37,2013-03-12 00:42:00,
2013-03-11 20:47:00,41.4,40.3,29.88,SSW,202,0.1,2.3,96,0.00,CLR,,0.00,WeatherDisplay:10.37,2013-03-12 00:47:00,
2013-03-11 20:52:00,41.5,40.4,29.89,SE,135,2.1,2.3,96,0.00,CLR,,0.00,WeatherDisplay:10.37,2013-03-12 00:52:00,
2013-03-11 20:57:00,41.4,40.3,29.89,SE,135,0.3,0.0,96,0.00,CLR,,0.00,WeatherDisplay:10.37,2013-03-12 00:57:00,
2013-03-11 21:02:00,41.2,40.1,29.88,SE,135,0.3,1.3,96,0.00,SCT,,0.00,WeatherDisplay:10.37,2013-03-12 01:02:00,
2013-03-11 21:07:00,41.0,39.9,29.88,SSW,202,1.4,2.7,96,0.00,SCT,,0.00,WeatherDisplay:10.37,2013-03-12 01:07:00,
2013-03-11 21:12:00,41.3,40.2,29.88,SSE,157,2.2,4.6,96,0.00,SCT,,0.00,WeatherDisplay:10.37,2013-03-12 01:12:00,
2013-03-11 21:17:00,41.5,40.4,29.87,SSW,202,1.1,2.3,96,0.00,SCT,,0.00,WeatherDisplay:10.37,2013-03-12 01:17:00,
2013-03-11 21:22:00,41.7,40.6,29.87,SSW,202,1.5,2.3,96,0.00,BKN,,0.00,WeatherDisplay:10.37,2013-03-12 01:22:00,
2013-03-11 21:27:00,41.8,40.7,29.86,West,270,0.8,2.3,96,0.00,BKN,,0.00,WeatherDisplay:10.37,2013-03-12 01:27:00,
2013-03-11 21:32:00,41.7,40.6,29.85,SSW,202,0.1,1.2,96,0.00,BKN,,0.00,WeatherDisplay:10.37,2013-03-12 01:32:00,
2013-03-11 21:37:00,41.8,40.7,29.85,SW,225,1.5,2.3,96,0.00,BKN,,0.00,WeatherDisplay:10.37,2013-03-12 01:37:00,
2013-03-11 21:42:00,41.8,40.7,29.85,South,180,1.2,2.3,96,0.00,BKN,,0.00,WeatherDisplay:10.37,2013-03-12 01:42:00,
2013-03-11 21:47:00,41.9,40.8,29.84,South,180,2.9,5.8,96,0.00,BKN,,0.00,WeatherDisplay:10.37,2013-03-12 01:47:00,
2013-03-11 21:52:00,42.0,40.9,29.83,SW,225,3.0,4.6,96,0.00,BKN,,0.00,WeatherDisplay:10.37,2013-03-12 01:52:00,
2013-03-11 21:57:00,42.1,41.0,29.82,South,180,1.1,2.7,96,0.00,BKN,,0.00,WeatherDisplay:10.37,2013-03-12 01:57:00,
2013-03-11 22:02:00,41.9,40.8,29.82,SSE,157,0.2,1.2,96,0.00,BKN,,0.00,WeatherDisplay:10.37,2013-03-12 02:02:00,
2013-03-11 22:07:00,41.9,40.8,29.82,SSW,202,0.0,0.0,96,0.00,BKN,,0.00,WeatherDisplay:10.37,2013-03-12 02:07:00,
2013-03-11 22:12:00,41.9,40.8,29.81,SE,135,1.9,2.3,96,0.00,SCT,,0.00,WeatherDisplay:10.37,2013-03-12 02:12:00,
2013-03-11 22:17:00,41.9,40.8,29.80,South,180,0.0,0.0,96,0.00,SCT,,0.00,WeatherDisplay:10.37,2013-03-12 02:17:00,
2013-03-11 22:22:00,42.0,40.9,29.80,South,180,0.6,1.3,96,0.00,SCT,,0.00,WeatherDisplay:10.37,2013-03-12 02:22:00,
2013-03-11 22:27:00,42.0,40.9,29.80,SSE,157,0.7,2.7,96,0.00,SCT,,0.00,WeatherDisplay:10.37,2013-03-12 02:27:00,
2013-03-11 22:32:00,41.9,40.8,29.78,NE,45,0.6,2.3,96,0.00,SCT,,0.00,WeatherDisplay:10.37,2013-03-12 02:32:00,
2013-03-11 22:37:00,41.7,40.6,29.79,WSW,247,0.4,1.3,96,0.00,SCT,,0.00,WeatherDisplay:10.37,2013-03-12 02:37:00,
2013-03-11 22:42:00,41.8,40.7,29.78,SSW,202,2.4,2.4,96,0.00,SCT,,0.00,WeatherDisplay:10.37,2013-03-12 02:42:00,
2013-03-11 22:47:00,41.8,40.7,29.78,South,180,2.5,2.5,96,0.00,SCT,,0.00,WeatherDisplay:10.37,2013-03-12 02:47:00,
2013-03-11 22:52:00,41.6,40.5,29.78,SSW,202,0.0,0.0,96,0.00,SCT,,0.00,WeatherDisplay:10.37,2013-03-12 02:52:00,
2013-03-11 22:57:00,41.4,40.3,29.77,SSE,157,1.1,2.3,96,0.00,SCT,,0.00,WeatherDisplay:10.37,2013-03-12 02:57:00,
2013-03-11 23:02:00,41.4,40.3,29.77,SSE,157,1.6,2.3,96,0.00,SCT,,0.00,WeatherDisplay:10.37,2013-03-12 03:02:00,
2013-03-11 23:07:00,41.4,40.3,29.77,WSW,247,1.5,2.3,96,0.00,SCT,,0.00,WeatherDisplay:10.37,2013-03-12 03:07:00,
2013-03-11 23:12:00,41.6,40.5,29.78,SW,225,1.1,2.3,96,0.00,SCT,,0.00,WeatherDisplay:10.37,2013-03-12 03:12:00,
2013-03-11 23:17:00,41.5,40.4,29.77,South,180,0.0,0.0,96,0.00,SCT,,0.00,WeatherDisplay:10.37,2013-03-12 03:17:00,
2013-03-11 23:22:00,41.6,40.5,29.77,South,180,1.3,2.7,96,0.00,BKN,,0.00,WeatherDisplay:10.37,2013-03-12 03:22:00,
2013-03-11 23:27:00,41.7,40.6,29.76,SW,225,1.1,2.3,96,0.00,BKN,,0.00,WeatherDisplay:10.37,2013-03-12 03:27:00,
2013-03-11 23:32:00,41.6,40.5,29.76,SW,225,0.4,1.2,96,0.00,BKN,,0.00,WeatherDisplay:10.37,2013-03-12 03:32:00,
2013-03-11 23:37:00,41.7,40.6,29.76,South,180,1.7,4.6,96,0.00,BKN,,0.00,WeatherDisplay:10.37,2013-03-12 03:37:00,
2013-03-11 23:42:00,41.8,40.7,29.76,SE,135,0.8,2.3,96,0.00,BKN,,0.00,WeatherDisplay:10.37,2013-03-12 03:42:00,
2013-03-11 23:47:00,41.9,40.8,29.75,SW,225,2.2,2.3,96,0.00,BKN,,0.00,WeatherDisplay:10.37,2013-03-12 03:47:00,
2013-03-11 23:52:00,42.0,40.9,29.74,SW,225,1.3,2.7,96,0.00,BKN,,0.00,WeatherDisplay:10.37,2013-03-12 03:52:00,
2013-03-11 23:57:00,42.2,41.1,29.74,South,180,1.2,2.3,96,0.00,BKN,,0.00,WeatherDisplay:10.37,2013-03-12 03:57:00,